createdAt,value
2023-05-21T00:00:35.460Z,96.26
2023-05-21T00:03:51.708Z,96.44
2023-05-21T00:06:43.203Z,96.79
2023-05-21T00:09:36.521Z,96.79
2023-05-21T00:12:25.662Z,97.18
2023-05-21T00:14:54.641Z,97.14
2023-05-21T00:17:23.624Z,97.48
2023-05-21T00:20:16.495Z,97.39
2023-05-21T00:23:05.605Z,97.44
2023-05-21T00:25:34.699Z,97.34
2023-05-21T00:28:06.635Z,97.51
2023-05-21T00:30:47.064Z,97.45
2023-05-21T00:33:15.913Z,97.62
2023-05-21T00:35:47.196Z,97.85
2023-05-21T00:38:18.796Z,97.70
2023-05-21T00:40:49.702Z,97.68
2023-05-21T00:43:18.210Z,97.73
2023-05-21T00:46:07.746Z,98.03
2023-05-21T00:48:36.889Z,97.97
2023-05-21T00:51:06.457Z,98.04
2023-05-21T00:53:38.317Z,98.33
2023-05-21T00:56:10.217Z,98.47
2023-05-21T00:58:41.943Z,98.69
2023-05-21T01:01:39.934Z,98.59
2023-05-21T01:04:32.094Z,98.89
2023-05-21T01:07:06.643Z,99.18
2023-05-21T01:09:38.096Z,99.35
2023-05-21T01:12:13.902Z,99.42
2023-05-21T01:14:48.846Z,99.64
2023-05-21T01:17:17.564Z,99.69
2023-05-21T01:19:49.163Z,99.92
2023-05-21T01:22:35.129Z,99.94
2023-05-21T01:25:27.576Z,100.00
2023-05-21T01:28:25.413Z,100.00
2023-05-21T01:30:56.740Z,100.00
2023-05-21T01:33:50.573Z,100.00
2023-05-21T01:36:38.488Z,100.00
2023-05-21T01:39:21.589Z,100.00
2023-05-21T01:41:53.939Z,100.00
2023-05-21T01:44:26.459Z,100.00
2023-05-21T01:47:00.312Z,100.00
2023-05-21T01:49:30.769Z,100.00
2023-05-21T01:52:39.983Z,100.00
2023-05-21T01:55:08.737Z,100.00
2023-05-21T01:57:37.503Z,100.00
2023-05-21T02:00:06.835Z,100.00
2023-05-21T02:02:59.082Z,99.98
2023-05-21T02:05:41.367Z,99.88
2023-05-21T02:08:34.034Z,99.99
2023-05-21T02:11:07.458Z,99.94
2023-05-21T02:13:59.546Z,100.00
2023-05-21T02:16:28.468Z,100.00
2023-05-21T02:18:58.171Z,100.00
2023-05-21T02:21:27.060Z,100.00
2023-05-21T02:23:59.347Z,100.00
2023-05-21T02:26:35.054Z,100.00
2023-05-21T02:29:23.846Z,100.00
2023-05-21T02:31:52.604Z,100.00
2023-05-21T02:34:43.560Z,100.00
2023-05-21T02:37:35.220Z,100.00
2023-05-21T02:40:18.615Z,100.00
2023-05-21T02:42:50.251Z,100.00
2023-05-21T02:45:18.753Z,100.00
2023-05-21T02:47:47.595Z,100.00
2023-05-21T02:50:42.217Z,100.00
2023-05-21T02:53:31.447Z,100.00
2023-05-21T02:56:43.690Z,100.00
2023-05-21T02:59:12.476Z,100.00
2023-05-21T03:01:46.624Z,100.00
2023-05-21T03:04:26.160Z,100.00
2023-05-21T03:07:20.507Z,100.00
2023-05-21T03:09:51.683Z,100.00
2023-05-21T03:12:31.689Z,100.00
2023-05-21T03:15:43.394Z,100.00
2023-05-21T03:18:21.284Z,100.00
2023-05-21T03:21:13.602Z,100.00
2023-05-21T03:23:44.811Z,100.00
2023-05-21T03:26:14.553Z,100.00
2023-05-21T03:29:03.005Z,100.00
2023-05-21T03:31:54.848Z,100.00
2023-05-21T03:34:30.319Z,100.00
2023-05-21T03:37:30.182Z,100.00
2023-05-21T03:40:26.404Z,100.00
2023-05-21T03:43:29.854Z,100.00
2023-05-21T03:45:58.405Z,100.00
2023-05-21T03:48:30.431Z,99.93
2023-05-21T03:51:22.181Z,99.99
2023-05-21T03:54:10.732Z,99.76
2023-05-21T03:56:52.869Z,99.50
2023-05-21T03:59:41.453Z,99.28
2023-05-21T04:02:32.614Z,98.97
2023-05-21T04:05:05.197Z,98.85
2023-05-21T04:07:33.618Z,98.72
2023-05-21T04:10:23.397Z,98.43
2023-05-21T04:13:01.596Z,98.05
2023-05-21T04:15:30.749Z,97.82
2023-05-21T04:18:02.343Z,97.53
2023-05-21T04:20:31.017Z,97.33
2023-05-21T04:23:10.590Z,96.94
2023-05-21T04:25:38.952Z,96.91
2023-05-21T04:28:08.352Z,96.75
2023-05-21T04:30:46.182Z,96.70
2023-05-21T04:33:44.278Z,96.49
2023-05-21T04:36:12.644Z,96.54
2023-05-21T04:38:49.560Z,96.54
2023-05-21T04:41:19.266Z,96.35
2023-05-21T04:43:55.407Z,96.38
2023-05-21T04:46:46.269Z,96.37
2023-05-21T04:49:22.465Z,96.46
2023-05-21T04:51:50.987Z,96.39
2023-05-21T04:54:19.311Z,96.62
2023-05-21T04:56:47.589Z,96.63
2023-05-21T04:59:17.147Z,96.67
2023-05-21T05:01:53.525Z,96.56
2023-05-21T05:04:22.142Z,96.02
2023-05-21T05:06:52.057Z,95.74
2023-05-21T05:09:21.814Z,95.37
2023-05-21T05:12:02.165Z,95.15
2023-05-21T05:15:01.174Z,94.76
2023-05-21T05:17:41.678Z,94.53
2023-05-21T05:20:20.478Z,94.33
2023-05-21T05:22:49.153Z,94.02
2023-05-21T05:25:18.103Z,94.05
2023-05-21T05:28:13.192Z,93.89
2023-05-21T05:31:22.389Z,93.81
2023-05-21T05:34:37.882Z,93.18
2023-05-21T05:37:43.197Z,92.46
2023-05-21T05:40:13.864Z,91.43
2023-05-21T05:42:49.531Z,90.54
2023-05-21T05:45:20.233Z,89.79
2023-05-21T05:47:51.849Z,89.11
2023-05-21T05:50:22.659Z,87.74
2023-05-21T05:52:51.654Z,87.15
2023-05-21T05:55:22.898Z,86.46
2023-05-21T05:57:57.638Z,85.18
2023-05-21T06:00:35.937Z,84.26
2023-05-21T06:03:13.759Z,84.08
2023-05-21T06:06:05.776Z,83.16
2023-05-21T06:08:37.357Z,82.51
2023-05-21T06:11:06.895Z,81.63
2023-05-21T06:14:11.628Z,81.54
2023-05-21T06:16:42.923Z,81.35
2023-05-21T06:19:11.306Z,80.42
2023-05-21T06:21:39.686Z,79.58
2023-05-21T06:24:10.689Z,79.53
2023-05-21T06:26:39.482Z,79.04
2023-05-21T06:29:15.507Z,78.34
2023-05-21T06:31:45.204Z,77.91
2023-05-21T06:34:13.809Z,75.94
2023-05-21T06:37:02.775Z,76.22
2023-05-21T06:39:51.566Z,76.52
2023-05-21T06:42:23.051Z,75.63
2023-05-21T06:44:51.548Z,74.52
2023-05-21T06:47:20.124Z,73.86
2023-05-21T06:49:48.980Z,73.51
2023-05-21T06:52:20.935Z,73.58
2023-05-21T06:54:49.357Z,73.22
2023-05-21T06:57:21.702Z,72.53
2023-05-21T06:59:50.624Z,71.85
2023-05-21T07:02:37.967Z,72.02
2023-05-21T07:05:06.583Z,71.84
2023-05-21T07:07:35.579Z,71.38
2023-05-21T07:10:14.545Z,71.42
2023-05-21T07:12:45.314Z,71.36
2023-05-21T07:15:13.971Z,71.20
2023-05-21T07:18:08.184Z,70.06
2023-05-21T07:20:49.230Z,69.63
2023-05-21T07:23:18.448Z,69.03
2023-05-21T07:25:56.896Z,67.44
2023-05-21T07:28:25.737Z,66.96
2023-05-21T07:31:05.295Z,67.23
2023-05-21T07:33:37.847Z,67.22
2023-05-21T07:36:15.624Z,66.89
2023-05-21T07:38:45.024Z,66.93
2023-05-21T07:41:33.087Z,66.17
2023-05-21T07:44:11.236Z,66.40
2023-05-21T07:47:06.519Z,65.10
2023-05-21T07:49:59.235Z,65.16
2023-05-21T07:52:52.674Z,64.12
2023-05-21T07:55:28.026Z,63.89
2023-05-21T07:58:19.123Z,63.33
2023-05-21T08:00:58.458Z,61.68
2023-05-21T08:03:29.916Z,61.85
2023-05-21T08:06:01.419Z,62.16
2023-05-21T08:08:42.365Z,60.60
2023-05-21T08:11:31.447Z,60.38
2023-05-21T08:14:08.392Z,60.64
2023-05-21T08:16:37.097Z,59.87
2023-05-21T08:19:09.197Z,60.60
2023-05-21T08:21:50.325Z,60.91
2023-05-21T08:24:36.582Z,61.04
2023-05-21T08:27:27.836Z,60.97
2023-05-21T08:30:19.521Z,60.92
2023-05-21T08:34:12.565Z,59.60
2023-05-21T08:37:08.787Z,59.84
2023-05-21T08:39:39.993Z,59.11
2023-05-21T08:42:44.817Z,58.53
2023-05-21T08:45:44.890Z,57.90
2023-05-21T08:48:17.450Z,56.80
2023-05-21T08:50:52.732Z,56.91
2023-05-21T08:53:28.549Z,55.81
2023-05-21T08:56:10.479Z,55.48
2023-05-21T08:58:44.283Z,55.75
2023-05-21T09:01:13.746Z,55.73
2023-05-21T09:03:54.438Z,56.03
2023-05-21T09:06:29.555Z,55.63
2023-05-21T09:09:49.921Z,55.85
2023-05-21T09:12:22.814Z,55.22
2023-05-21T09:14:59.751Z,55.44
2023-05-21T09:17:39.467Z,54.49
2023-05-21T09:20:17.790Z,54.03
2023-05-21T09:23:11.229Z,53.62
2023-05-21T09:25:54.926Z,54.06
2023-05-21T09:28:36.492Z,53.41
2023-05-21T09:31:05.514Z,53.01
2023-05-21T09:33:48.898Z,52.97
2023-05-21T09:36:30.644Z,52.96
2023-05-21T09:39:23.168Z,52.89
2023-05-21T09:42:06.458Z,51.96
2023-05-21T09:44:35.482Z,49.19
2023-05-21T09:47:04.816Z,49.58
2023-05-21T09:49:46.077Z,49.43
2023-05-21T09:52:28.471Z,49.45
2023-05-21T09:54:57.815Z,49.81
2023-05-21T09:57:30.005Z,48.54
2023-05-21T10:00:09.012Z,47.55
2023-05-21T10:03:07.531Z,46.52
2023-05-21T10:05:37.782Z,47.03
2023-05-21T10:08:12.632Z,47.46
2023-05-21T10:10:43.073Z,47.36
2023-05-21T10:13:18.495Z,47.41
2023-05-21T10:15:53.475Z,47.57
2023-05-21T10:18:23.987Z,47.23
2023-05-21T10:20:54.518Z,46.66
2023-05-21T10:23:25.093Z,46.92
2023-05-21T10:25:55.449Z,46.27
2023-05-21T10:28:28.564Z,47.24
2023-05-21T10:30:59.599Z,47.09
2023-05-21T10:33:34.560Z,47.13
2023-05-21T10:36:16.828Z,47.22
2023-05-21T10:38:47.306Z,46.67
2023-05-21T10:41:22.257Z,46.21
2023-05-21T10:44:04.628Z,45.77
2023-05-21T10:47:26.435Z,45.41
2023-05-21T10:50:16.899Z,44.85
2023-05-21T10:53:10.677Z,44.22
2023-05-21T10:55:39.664Z,44.24
2023-05-21T10:58:36.150Z,42.58
2023-05-21T11:01:11.582Z,42.60
2023-05-21T11:03:42.665Z,42.22
2023-05-21T11:06:12.030Z,42.57
2023-05-21T11:09:08.624Z,42.02
2023-05-21T11:11:53.030Z,41.61
2023-05-21T11:14:59.114Z,41.01
2023-05-21T11:18:04.874Z,41.41
2023-05-21T11:20:36.952Z,41.90
2023-05-21T11:23:14.951Z,41.60
2023-05-21T11:25:44.086Z,40.80
2023-05-21T11:28:15.390Z,40.12
2023-05-21T11:30:44.139Z,40.32
2023-05-21T11:33:22.046Z,40.40
2023-05-21T11:35:51.222Z,40.85
2023-05-21T11:38:25.691Z,40.36
2023-05-21T11:41:04.078Z,40.31
2023-05-21T11:44:02.013Z,39.53
2023-05-21T11:47:05.645Z,39.92
2023-05-21T11:49:35.669Z,40.24
2023-05-21T11:52:17.592Z,40.71
2023-05-21T11:55:01.390Z,40.73
2023-05-21T11:57:31.566Z,40.90
2023-05-21T12:00:05.041Z,40.22
2023-05-21T12:02:36.447Z,39.61
2023-05-21T12:05:27.885Z,39.95
2023-05-21T12:07:58.749Z,40.39
2023-05-21T12:10:30.299Z,40.13
2023-05-21T12:13:12.816Z,39.99
2023-05-21T12:15:44.984Z,39.40
2023-05-21T12:18:16.918Z,39.72
2023-05-21T12:20:48.724Z,39.40
2023-05-21T12:23:27.077Z,39.13
2023-05-21T12:25:56.529Z,39.07
2023-05-21T12:28:26.261Z,39.03
2023-05-21T12:31:03.998Z,39.18
2023-05-21T12:33:41.778Z,38.81
2023-05-21T12:36:10.637Z,39.22
2023-05-21T12:38:48.475Z,39.20
2023-05-21T12:41:18.811Z,38.51
2023-05-21T12:43:51.814Z,38.34
2023-05-21T12:46:23.777Z,38.06
2023-05-21T12:49:01.378Z,38.59
2023-05-21T12:51:45.596Z,38.27
2023-05-21T12:54:19.761Z,38.72
2023-05-21T12:56:48.442Z,39.08
2023-05-21T12:59:17.191Z,39.34
2023-05-21T13:01:48.999Z,39.06
2023-05-21T13:04:21.344Z,39.22
2023-05-21T13:06:53.062Z,38.61
2023-05-21T13:09:24.258Z,38.14
2023-05-21T13:12:02.918Z,37.97
2023-05-21T13:14:36.809Z,37.42
2023-05-21T13:17:11.418Z,36.94
2023-05-21T13:19:40.022Z,37.48
2023-05-21T13:22:11.492Z,37.70
2023-05-21T13:24:47.135Z,38.20
2023-05-21T13:27:17.960Z,37.67
2023-05-21T13:29:49.860Z,37.38
2023-05-21T13:32:21.524Z,37.21
2023-05-21T13:34:57.968Z,37.01
2023-05-21T13:37:32.685Z,36.68
2023-05-21T13:40:05.499Z,37.11
2023-05-21T13:42:35.755Z,36.67
2023-05-21T13:45:14.738Z,36.38
2023-05-21T13:47:48.598Z,36.57
2023-05-21T13:50:18.528Z,36.67
2023-05-21T13:52:50.602Z,36.77
2023-05-21T13:55:19.733Z,36.57
2023-05-21T13:57:52.040Z,37.24
2023-05-21T14:00:25.807Z,36.93
2023-05-21T14:02:54.997Z,37.09
2023-05-21T14:05:26.290Z,37.60
2023-05-21T14:07:56.927Z,37.92
2023-05-21T14:10:28.331Z,37.41
2023-05-21T14:13:01.635Z,37.13
2023-05-21T14:15:40.898Z,37.42
2023-05-21T14:18:12.411Z,36.89
2023-05-21T14:20:40.971Z,36.55
2023-05-21T14:23:13.033Z,36.87
2023-05-21T14:25:42.987Z,36.81
2023-05-21T14:28:14.210Z,36.68
2023-05-21T14:30:42.607Z,37.19
2023-05-21T14:33:13.592Z,37.40
2023-05-21T14:35:44.320Z,36.85
2023-05-21T14:38:13.349Z,36.60
2023-05-21T14:40:47.149Z,36.84
2023-05-21T14:43:15.664Z,36.95
2023-05-21T14:45:44.039Z,37.23
2023-05-21T14:48:13.091Z,37.15
2023-05-21T14:50:41.603Z,37.35
2023-05-21T14:53:12.119Z,36.68
2023-05-21T14:55:40.746Z,36.96
2023-05-21T14:58:10.084Z,36.66
2023-05-21T15:00:38.954Z,36.61
2023-05-21T15:03:07.344Z,36.56
2023-05-21T15:05:36.465Z,36.48
2023-05-21T15:08:06.175Z,36.73
2023-05-21T15:10:40.223Z,36.75
2023-05-21T15:13:08.847Z,36.80
2023-05-21T15:15:44.608Z,36.80
2023-05-21T15:18:13.556Z,36.85
2023-05-21T15:20:42.165Z,36.62
2023-05-21T15:23:17.365Z,36.29
2023-05-21T15:25:46.165Z,36.48
2023-05-21T15:28:14.466Z,36.82
2023-05-21T15:30:42.723Z,37.07
2023-05-21T15:33:11.730Z,37.22
2023-05-21T15:35:41.250Z,37.00
2023-05-21T15:38:10.365Z,36.79
2023-05-21T15:40:42.133Z,36.65
2023-05-21T15:43:15.061Z,36.90
2023-05-21T15:45:45.322Z,37.44
2023-05-21T15:48:23.226Z,37.75
2023-05-21T15:50:51.809Z,37.20
2023-05-21T15:53:20.095Z,37.54
2023-05-21T15:55:57.649Z,38.03
2023-05-21T15:58:25.999Z,38.35
2023-05-21T16:00:54.453Z,38.30
2023-05-21T16:03:23.030Z,38.17
2023-05-21T16:05:51.633Z,38.20
2023-05-21T16:08:22.379Z,38.25
2023-05-21T16:10:50.853Z,38.44
2023-05-21T16:13:19.069Z,38.93
2023-05-21T16:15:47.411Z,38.87
2023-05-21T16:18:16.269Z,38.51
2023-05-21T16:20:44.704Z,38.57
2023-05-21T16:23:13.025Z,38.74
2023-05-21T16:25:43.905Z,38.76
2023-05-21T16:28:15.719Z,38.22
2023-05-21T16:30:44.105Z,38.36
2023-05-21T16:33:13.005Z,38.55
2023-05-21T16:35:41.232Z,38.32
2023-05-21T16:38:09.394Z,38.49
2023-05-21T16:40:43.399Z,38.43
2023-05-21T16:43:12.173Z,38.81
2023-05-21T16:45:43.302Z,38.33
2023-05-21T16:48:13.703Z,38.32
2023-05-21T16:50:42.949Z,38.09
2023-05-21T16:53:11.824Z,38.00
2023-05-21T16:55:48.106Z,37.76
2023-05-21T16:58:16.881Z,37.88
2023-05-21T17:00:46.126Z,37.94
2023-05-21T17:03:15.529Z,38.40
2023-05-21T17:05:44.582Z,38.22
2023-05-21T17:08:13.210Z,38.15
2023-05-21T17:10:41.501Z,38.01
2023-05-21T17:13:21.477Z,38.32
2023-05-21T17:15:51.740Z,38.28
2023-05-21T17:18:22.530Z,38.38
2023-05-21T17:20:52.134Z,38.50
2023-05-21T17:23:22.806Z,38.54
2023-05-21T17:25:52.631Z,38.69
2023-05-21T17:28:22.049Z,38.76
2023-05-21T17:30:50.791Z,39.01
2023-05-21T17:33:19.361Z,39.09
2023-05-21T17:35:47.560Z,39.29
2023-05-21T17:38:25.051Z,39.59
2023-05-21T17:40:53.453Z,39.74
2023-05-21T17:43:21.836Z,39.95
2023-05-21T17:45:50.572Z,40.21
2023-05-21T17:48:19.218Z,40.45
2023-05-21T17:50:47.774Z,40.76
2023-05-21T17:53:16.735Z,40.84
2023-05-21T17:55:45.134Z,41.12
2023-05-21T17:58:21.285Z,41.35
2023-05-21T18:00:49.631Z,41.66
2023-05-21T18:03:47.552Z,41.79
2023-05-21T18:06:18.416Z,42.25
2023-05-21T18:08:46.750Z,42.30
2023-05-21T18:11:24.409Z,42.48
2023-05-21T18:14:10.250Z,42.70
2023-05-21T18:16:38.851Z,42.74
2023-05-21T18:19:07.531Z,43.22
2023-05-21T18:21:38.209Z,42.94
2023-05-21T18:24:07.100Z,43.07
2023-05-21T18:26:42.302Z,43.17
2023-05-21T18:29:11.491Z,43.26
2023-05-21T18:31:45.649Z,43.38
2023-05-21T18:34:17.814Z,43.48
2023-05-21T18:36:46.881Z,43.69
2023-05-21T18:39:15.492Z,43.85
2023-05-21T18:41:46.553Z,43.70
2023-05-21T18:44:15.287Z,43.85
2023-05-21T18:46:44.709Z,44.01
2023-05-21T18:49:13.337Z,44.03
2023-05-21T18:52:04.174Z,44.19
2023-05-21T18:54:35.537Z,44.31
2023-05-21T18:57:04.152Z,44.69
2023-05-21T18:59:36.469Z,44.66
2023-05-21T19:02:05.411Z,44.92
2023-05-21T19:04:36.953Z,45.16
2023-05-21T19:07:05.951Z,45.61
2023-05-21T19:09:34.673Z,45.70
2023-05-21T19:12:07.052Z,46.01
2023-05-21T19:14:52.324Z,46.21
2023-05-21T19:17:20.779Z,46.32
2023-05-21T19:19:56.021Z,46.66
2023-05-21T19:22:28.359Z,46.82
2023-05-21T19:24:59.660Z,46.81
2023-05-21T19:27:29.587Z,46.90
2023-05-21T19:30:00.846Z,47.18
2023-05-21T19:32:32.357Z,47.33
2023-05-21T19:35:01.050Z,47.44
2023-05-21T19:37:30.127Z,47.70
2023-05-21T19:39:58.740Z,47.77
2023-05-21T19:42:37.243Z,47.86
2023-05-21T19:45:09.738Z,48.01
2023-05-21T19:47:41.273Z,48.21
2023-05-21T19:50:16.688Z,48.03
2023-05-21T19:52:47.763Z,48.21
2023-05-21T19:55:20.472Z,48.26
2023-05-21T19:57:52.016Z,48.27
2023-05-21T20:00:20.825Z,48.36
2023-05-21T20:02:49.410Z,48.54
2023-05-21T20:05:20.266Z,48.62
2023-05-21T20:07:49.073Z,48.72
2023-05-21T20:10:38.644Z,49.16
2023-05-21T20:13:09.045Z,49.44
2023-05-21T20:15:38.369Z,49.42
2023-05-21T20:18:07.149Z,49.39
2023-05-21T20:20:38.258Z,49.38
2023-05-21T20:23:07.596Z,49.55
2023-05-21T20:25:36.149Z,49.65
2023-05-21T20:28:08.277Z,49.63
2023-05-21T20:30:57.827Z,49.88
2023-05-21T20:33:33.487Z,50.06
2023-05-21T20:36:08.224Z,50.04
2023-05-21T20:38:37.356Z,50.18
2023-05-21T20:41:06.213Z,50.35
2023-05-21T20:43:37.508Z,50.38
2023-05-21T20:46:08.321Z,50.47
2023-05-21T20:48:37.932Z,50.37
2023-05-21T20:51:07.189Z,50.53
2023-05-21T20:53:41.499Z,50.56
2023-05-21T20:56:11.884Z,50.79
2023-05-21T20:58:49.853Z,50.84
2023-05-21T21:01:18.794Z,50.92
2023-05-21T21:03:47.675Z,50.95
2023-05-21T21:06:21.736Z,51.22
2023-05-21T21:08:50.423Z,51.16
2023-05-21T21:11:19.529Z,51.16
2023-05-21T21:13:48.344Z,51.04
2023-05-21T21:16:24.658Z,50.88
2023-05-21T21:18:53.444Z,51.03
2023-05-21T21:21:24.532Z,50.84
2023-05-21T21:23:53.277Z,51.10
2023-05-21T21:26:22.174Z,51.53
2023-05-21T21:28:51.238Z,51.71
2023-05-21T21:31:29.965Z,51.87
2023-05-21T21:33:58.900Z,52.35
2023-05-21T21:36:29.249Z,52.47
2023-05-21T21:38:58.045Z,52.60
2023-05-21T21:41:26.512Z,52.68
2023-05-21T21:43:55.299Z,52.45
2023-05-21T21:46:25.966Z,52.67
2023-05-21T21:48:54.371Z,52.30
2023-05-21T21:51:23.625Z,52.40
2023-05-21T21:53:52.594Z,52.44
2023-05-21T21:56:22.284Z,52.63
2023-05-21T21:58:51.252Z,52.49
2023-05-21T22:01:20.183Z,52.42
2023-05-21T22:03:48.792Z,52.50
2023-05-21T22:06:23.229Z,52.62
2023-05-21T22:09:12.687Z,52.65
2023-05-21T22:11:44.145Z,52.90
2023-05-21T22:14:12.689Z,53.26
2023-05-21T22:16:41.757Z,53.20
2023-05-21T22:19:15.512Z,53.19
2023-05-21T22:22:05.518Z,53.54
2023-05-21T22:24:54.605Z,53.47
2023-05-21T22:27:23.007Z,53.62
2023-05-21T22:29:51.656Z,53.48
2023-05-21T22:32:20.470Z,53.71
2023-05-21T22:34:49.122Z,53.76
2023-05-21T22:37:20.056Z,53.71
2023-05-21T22:39:48.720Z,53.93
2023-05-21T22:42:17.738Z,54.12
2023-05-21T22:45:06.908Z,53.89
2023-05-21T22:47:37.339Z,54.02
2023-05-21T22:50:10.434Z,54.15
2023-05-21T22:52:39.257Z,54.15
2023-05-21T22:55:21.334Z,54.49
2023-05-21T22:58:10.127Z,54.36
2023-05-21T23:00:41.918Z,54.57
2023-05-21T23:03:19.776Z,54.37
2023-05-21T23:05:51.208Z,54.69
2023-05-21T23:08:22.533Z,54.64
2023-05-21T23:10:54.043Z,54.80
2023-05-21T23:13:22.298Z,55.09
2023-05-21T23:15:53.958Z,54.97
2023-05-21T23:18:22.649Z,55.12
2023-05-21T23:20:52.370Z,55.33
2023-05-21T23:23:23.334Z,55.47
2023-05-21T23:25:59.875Z,55.65
2023-05-21T23:28:28.246Z,55.52
2023-05-21T23:31:09.342Z,56.01
2023-05-21T23:33:43.150Z,55.87
2023-05-21T23:36:14.536Z,56.10
2023-05-21T23:38:42.604Z,56.27
2023-05-21T23:41:14.889Z,56.35
2023-05-21T23:43:43.174Z,56.42
2023-05-21T23:46:17.158Z,56.38
2023-05-21T23:48:45.634Z,56.64
2023-05-21T23:51:19.431Z,56.79
2023-05-21T23:54:11.429Z,57.04
2023-05-21T23:57:00.025Z,57.09
2023-05-21T23:59:29.424Z,57.35
